Miedwie — C6XP5 — position and weather

sailwx.info

Track history (hours):
 
Tides and Currents Weather Stations Pressure Air Temp Water Temp Dewpoint Dewpoint Depression Visibility Wind Speed Wind Dir Waves Ship Positions

Miedwie

Last reported at 2015-Aug-02 15:33 UTC. Time now 2015-Aug-02 16:29 UTC.
Position N 43°07' W 079°12'.

Length 190 m; draft 8.1 m.

Type: Cargo ship. MMSI: 311018300.

Date/timePositionNaut miles runAvg speedWind from/ knotsBaromVisibWave heightAir tempDewpointWater temp
2015-Aug-02 15:33N 43°07' W 079°12'1 1.1
2015-Aug-02 14:33N 43°06' W 079°12'27 5.3
2015-Aug-02 09:31N 42°43' W 079°29'1212.1
2015-Aug-02 08:33N 42°36' W 079°41'1212.2
2015-Aug-02 07:33N 42°29' W 079°55'1212.2
2015-Aug-02 06:33N 42°24' W 080°10'1212.3
2015-Aug-02 05:33N 42°20' W 080°26'1212.1
2015-Aug-02 04:33N 42°16' W 080°41'303 7.2
2015-Jul-31 10:33N 46°28' W 084°34'9 8.7
2015-Jul-31 09:33N 46°35' W 084°43'1311.7
2015-Jul-31 08:28N 46°45' W 084°53'  
2015-Jul-24 06:09N 46°29' W 084°36'11 2.8
2015-Jul-24 02:19N 46°30' W 084°20'7 4.3
2015-Jul-24 00:33N 46°24' W 084°14'19 8.2
2015-Jul-23 22:17N 46°08' W 084°01'10 9.9
2015-Jul-23 21:19N 45°60' W 083°53'8 9.5
2015-Jul-23 20:26N 45°53' W 084°01'1012.0
2015-Jul-23 19:33N 45°51' W 084°16'1212.2
2015-Jul-23 18:33N 45°51' W 084°33'1211.9
2015-Jul-23 17:33N 45°50' W 084°50'1212.4
2015-Jul-23 16:33N 45°51' W 085°08'  
Track history (hours):
 
Tides and Currents Weather Stations Pressure Air Temp Water Temp Dewpoint Dewpoint Depression Visibility Wind Speed Wind Dir Waves Ship Positions

Miedwie

Last reported at 2015-Aug-02 15:33 UTC. Time now 2015-Aug-02 16:29 UTC.
Position N 43°07' W 079°12'.

Length 190 m; draft 8.1 m.

Type: Cargo ship. MMSI: 311018300.

Date/timePositionNaut miles runAvg speedWind from/ knotsBaromVisibWave heightAir tempDewpointWater temp
2015-Aug-02 15:33N 43°07' W 079°12'1 1.1
2015-Aug-02 14:33N 43°06' W 079°12'27 5.3
2015-Aug-02 09:31N 42°43' W 079°29'1212.1
2015-Aug-02 08:33N 42°36' W 079°41'1212.2
2015-Aug-02 07:33N 42°29' W 079°55'1212.2
2015-Aug-02 06:33N 42°24' W 080°10'1212.3
2015-Aug-02 05:33N 42°20' W 080°26'1212.1
2015-Aug-02 04:33N 42°16' W 080°41'303 7.2
2015-Jul-31 10:33N 46°28' W 084°34'9 8.7
2015-Jul-31 09:33N 46°35' W 084°43'1311.7
2015-Jul-31 08:28N 46°45' W 084°53'  
2015-Jul-24 06:09N 46°29' W 084°36'11 2.8
2015-Jul-24 02:19N 46°30' W 084°20'7 4.3
2015-Jul-24 00:33N 46°24' W 084°14'19 8.2
2015-Jul-23 22:17N 46°08' W 084°01'10 9.9
2015-Jul-23 21:19N 45°60' W 083°53'8 9.5
2015-Jul-23 20:26N 45°53' W 084°01'1012.0
2015-Jul-23 19:33N 45°51' W 084°16'1212.2
2015-Jul-23 18:33N 45°51' W 084°33'1211.9
2015-Jul-23 17:33N 45°50' W 084°50'1212.4
2015-Jul-23 16:33N 45°51' W 085°08'  

Dump ship's entire track history